KCID/CID METAR and TAF weather

Enter ICAO airport designator
Station Type Date Time Source
KCID METAR 2024/04/18 07:52 UTC NOAA

KCID 180752Z AUTO 00000KT 10SM BKN100 08/06 A3001 RMK AO2 PRESRR SLP165 T00780056


Station Type Date Time Source
KCID Decoded METAR 2024/04/18 07:52 UTC NOAA

CEDAR RAPIDS AIRPORT, IA, United States (KCID) 41-53N 91-43W
Apr 18, 2024 - 03:52 AM EDT / 2024.04.18 0752 UTC
Wind: Calm:0
Visibility: 10 mile(s):0
Sky conditions: mostly cloudy
Temperature: 46.0 F (7.8 C)
Dew Point: 42.1 F (5.6 C)
Relative Humidity: 85%
Pressure (altimeter): 30.01 in. Hg (1016 hPa)
Pressure tendency: rising rapidly
ob: KCID 180752Z AUTO 00000KT 10SM BKN100 08/06 A3001 RMK AO2 PRESRR SLP165 T00780056
cycle: 8

Station Type Date Time Source
KCID TAF 2024/04/18 06:30 UTC NOAA